sensor_id;sensor_type;location;lat;lon;timestamp;temperature;humidity
39401;SHT31;75540;50.000;7.360;2024-01-15T00:01:22;-4.87;96.96
39401;SHT31;75540;50.000;7.360;2024-01-15T00:03:50;-4.93;97.19
39401;SHT31;75540;50.000;7.360;2024-01-15T00:06:20;-4.88;97.16
39401;SHT31;75540;50.000;7.360;2024-01-15T00:08:48;-4.91;97.25
39401;SHT31;75540;50.000;7.360;2024-01-15T00:11:16;-4.84;97.18
39401;SHT31;75540;50.000;7.360;2024-01-15T00:13:45;-4.93;97.24
39401;SHT31;75540;50.000;7.360;2024-01-15T00:16:13;-4.90;97.37
39401;SHT31;75540;50.000;7.360;2024-01-15T00:18:41;-4.90;97.25
39401;SHT31;75540;50.000;7.360;2024-01-15T00:21:09;-4.87;97.23
39401;SHT31;75540;50.000;7.360;2024-01-15T00:23:42;-4.97;97.36
39401;SHT31;75540;50.000;7.360;2024-01-15T00:26:10;-4.97;97.46
39401;SHT31;75540;50.000;7.360;2024-01-15T00:28:38;-4.96;97.44
39401;SHT31;75540;50.000;7.360;2024-01-15T00:31:07;-4.88;97.31
39401;SHT31;75540;50.000;7.360;2024-01-15T00:33:35;-4.90;97.30
39401;SHT31;75540;50.000;7.360;2024-01-15T00:36:03;-4.93;97.26
39401;SHT31;75540;50.000;7.360;2024-01-15T00:38:32;-4.96;97.39
39401;SHT31;75540;50.000;7.360;2024-01-15T00:41:01;-4.98;97.54
39401;SHT31;75540;50.000;7.360;2024-01-15T00:43:29;-5.03;97.64
39401;SHT31;75540;50.000;7.360;2024-01-15T00:45:58;-5.01;97.68
39401;SHT31;75540;50.000;7.360;2024-01-15T00:48:26;-5.03;97.79
39401;SHT31;75540;50.000;7.360;2024-01-15T00:50:54;-4.94;97.81
39401;SHT31;75540;50.000;7.360;2024-01-15T00:53:22;-4.94;97.65
39401;SHT31;75540;50.000;7.360;2024-01-15T00:55:50;-4.97;97.72
39401;SHT31;75540;50.000;7.360;2024-01-15T00:58:20;-4.97;97.85
39401;SHT31;75540;50.000;7.360;2024-01-15T01:00:48;-4.97;97.81
39401;SHT31;75540;50.000;7.360;2024-01-15T01:03:16;-4.96;97.72
39401;SHT31;75540;50.000;7.360;2024-01-15T01:05:45;-4.86;97.57
39401;SHT31;75540;50.000;7.360;2024-01-15T01:08:13;-4.88;97.51
39401;SHT31;75540;50.000;7.360;2024-01-15T01:10:41;-4.86;97.49
39401;SHT31;75540;50.000;7.360;2024-01-15T01:13:10;-4.80;97.42
39401;SHT31;75540;50.000;7.360;2024-01-15T01:15:40;-4.80;97.43
39401;SHT31;75540;50.000;7.360;2024-01-15T01:18:08;-4.73;97.32
39401;SHT31;75540;50.000;7.360;2024-01-15T01:20:36;-4.80;97.42
39401;SHT31;75540;50.000;7.360;2024-01-15T01:23:04;-4.77;97.40
39401;SHT31;75540;50.000;7.360;2024-01-15T01:25:33;-4.73;97.40
39401;SHT31;75540;50.000;7.360;2024-01-15T01:28:01;-4.80;97.41
39401;SHT31;75540;50.000;7.360;2024-01-15T01:30:29;-4.73;97.36
39401;SHT31;75540;50.000;7.360;2024-01-15T01:32:59;-4.73;97.42
39401;SHT31;75540;50.000;7.360;2024-01-15T01:35:27;-4.75;97.52
39401;SHT31;75540;50.000;7.360;2024-01-15T01:37:55;-4.66;97.39
39401;SHT31;75540;50.000;7.360;2024-01-15T01:40:23;-4.69;97.50
39401;SHT31;75540;50.000;7.360;2024-01-15T01:42:52;-4.63;97.32
39401;SHT31;75540;50.000;7.360;2024-01-15T01:45:20;-4.65;97.41
39401;SHT31;75540;50.000;7.360;2024-01-15T01:47:48;-4.62;97.43
39401;SHT31;75540;50.000;7.360;2024-01-15T01:50:18;-4.63;97.35
39401;SHT31;75540;50.000;7.360;2024-01-15T01:52:47;-4.60;97.32
39401;SHT31;75540;50.000;7.360;2024-01-15T01:55:15;-4.57;97.38
39401;SHT31;75540;50.000;7.360;2024-01-15T01:57:44;-4.52;97.28
39401;SHT31;75540;50.000;7.360;2024-01-15T02:00:13;-4.53;97.25
39401;SHT31;75540;50.000;7.360;2024-01-15T02:02:41;-4.50;97.26
39401;SHT31;75540;50.000;7.360;2024-01-15T02:05:12;-4.50;97.25
39401;SHT31;75540;50.000;7.360;2024-01-15T02:07:43;-4.46;97.29
39401;SHT31;75540;50.000;7.360;2024-01-15T02:10:13;-4.42;97.09
39401;SHT31;75540;50.000;7.360;2024-01-15T02:12:42;-4.49;97.09
39401;SHT31;75540;50.000;7.360;2024-01-15T02:15:10;-4.46;97.23
39401;SHT31;75540;50.000;7.360;2024-01-15T02:17:57;-4.45;97.26
39401;SHT31;75540;50.000;7.360;2024-01-15T02:20:25;-4.46;97.29
39401;SHT31;75540;50.000;7.360;2024-01-15T02:23:01;-4.46;97.36
39401;SHT31;75540;50.000;7.360;2024-01-15T02:25:29;-4.46;97.49
39401;SHT31;75540;50.000;7.360;2024-01-15T02:27:58;-4.45;97.53
39401;SHT31;75540;50.000;7.360;2024-01-15T02:30:27;-4.42;97.51
39401;SHT31;75540;50.000;7.360;2024-01-15T02:32:56;-4.36;97.48
39401;SHT31;75540;50.000;7.360;2024-01-15T02:35:24;-4.32;97.44
39401;SHT31;75540;50.000;7.360;2024-01-15T02:37:52;-4.32;97.47
39401;SHT31;75540;50.000;7.360;2024-01-15T02:40:22;-4.30;97.49
39401;SHT31;75540;50.000;7.360;2024-01-15T02:42:50;-4.25;97.37
39401;SHT31;75540;50.000;7.360;2024-01-15T02:45:19;-4.22;97.30
39401;SHT31;75540;50.000;7.360;2024-01-15T02:47:48;-4.21;97.24
39401;SHT31;75540;50.000;7.360;2024-01-15T02:50:16;-4.14;97.19
39401;SHT31;75540;50.000;7.360;2024-01-15T02:52:44;-4.15;97.14
39401;SHT31;75540;50.000;7.360;2024-01-15T02:55:12;-4.22;97.28
39401;SHT31;75540;50.000;7.360;2024-01-15T02:57:42;-4.19;97.32
39401;SHT31;75540;50.000;7.360;2024-01-15T03:00:11;-4.19;97.41
39401;SHT31;75540;50.000;7.360;2024-01-15T03:02:40;-4.16;97.41
39401;SHT31;75540;50.000;7.360;2024-01-15T03:05:10;-4.08;97.32
39401;SHT31;75540;50.000;7.360;2024-01-15T03:07:38;-4.11;97.25
39401;SHT31;75540;50.000;7.360;2024-01-15T03:10:07;-4.09;97.20
39401;SHT31;75540;50.000;7.360;2024-01-15T03:12:35;-4.11;97.30
39401;SHT31;75540;50.000;7.360;2024-01-15T03:15:05;-4.08;97.11
39401;SHT31;75540;50.000;7.360;2024-01-15T03:17:34;-4.14;97.37
39401;SHT31;75540;50.000;7.360;2024-01-15T03:20:02;-4.09;97.34
39401;SHT31;75540;50.000;7.360;2024-01-15T03:22:31;-4.04;97.42
39401;SHT31;75540;50.000;7.360;2024-01-15T03:24:59;-4.04;97.24
39401;SHT31;75540;50.000;7.360;2024-01-15T03:27:27;-4.08;97.35
39401;SHT31;75540;50.000;7.360;2024-01-15T03:29:55;-3.98;97.32
39401;SHT31;75540;50.000;7.360;2024-01-15T03:32:25;-3.94;97.24
39401;SHT31;75540;50.000;7.360;2024-01-15T03:34:53;-4.02;97.49
39401;SHT31;75540;50.000;7.360;2024-01-15T03:37:21;-4.02;97.62
39401;SHT31;75540;50.000;7.360;2024-01-15T03:39:49;-4.01;97.66
39401;SHT31;75540;50.000;7.360;2024-01-15T03:42:18;-3.97;97.64
39401;SHT31;75540;50.000;7.360;2024-01-15T03:44:46;-3.95;97.62
39401;SHT31;75540;50.000;7.360;2024-01-15T03:47:14;-3.94;97.63
39401;SHT31;75540;50.000;7.360;2024-01-15T03:49:44;-3.92;97.52
39401;SHT31;75540;50.000;7.360;2024-01-15T03:52:12;-3.94;97.60
39401;SHT31;75540;50.000;7.360;2024-01-15T03:54:40;-3.95;97.63
39401;SHT31;75540;50.000;7.360;2024-01-15T03:57:08;-3.88;97.63
39401;SHT31;75540;50.000;7.360;2024-01-15T03:59:37;-3.88;97.57
39401;SHT31;75540;50.000;7.360;2024-01-15T04:02:05;-3.91;97.62
39401;SHT31;75540;50.000;7.360;2024-01-15T04:04:33;-3.88;97.65
39401;SHT31;75540;50.000;7.360;2024-01-15T04:07:03;-3.90;97.60
39401;SHT31;75540;50.000;7.360;2024-01-15T04:09:31;-3.87;97.69
39401;SHT31;75540;50.000;7.360;2024-01-15T04:11:59;-3.84;97.64
39401;SHT31;75540;50.000;7.360;2024-01-15T04:14:28;-3.82;97.68
39401;SHT31;75540;50.000;7.360;2024-01-15T04:16:56;-3.77;97.63
39401;SHT31;75540;50.000;7.360;2024-01-15T04:19:24;-3.80;97.68
39401;SHT31;75540;50.000;7.360;2024-01-15T04:21:52;-3.75;97.67
39401;SHT31;75540;50.000;7.360;2024-01-15T04:24:22;-3.84;97.74
39401;SHT31;75540;50.000;7.360;2024-01-15T04:26:51;-3.84;97.86
39401;SHT31;75540;50.000;7.360;2024-01-15T04:29:19;-3.77;97.82
39401;SHT31;75540;50.000;7.360;2024-01-15T04:31:47;-3.77;97.84
39401;SHT31;75540;50.000;7.360;2024-01-15T04:34:15;-3.74;97.88
39401;SHT31;75540;50.000;7.360;2024-01-15T04:36:44;-3.73;97.83
39401;SHT31;75540;50.000;7.360;2024-01-15T04:39:12;-3.73;97.87
39401;SHT31;75540;50.000;7.360;2024-01-15T04:41:41;-3.73;97.91
39401;SHT31;75540;50.000;7.360;2024-01-15T04:44:10;-3.73;97.89
39401;SHT31;75540;50.000;7.360;2024-01-15T04:46:38;-3.60;97.76
39401;SHT31;75540;50.000;7.360;2024-01-15T04:49:06;-3.64;97.65
39401;SHT31;75540;50.000;7.360;2024-01-15T04:51:35;-3.66;97.71
39401;SHT31;75540;50.000;7.360;2024-01-15T04:54:03;-3.61;97.76
39401;SHT31;75540;50.000;7.360;2024-01-15T04:56:31;-3.63;97.76
39401;SHT31;75540;50.000;7.360;2024-01-15T04:59:01;-3.63;97.91
39401;SHT31;75540;50.000;7.360;2024-01-15T05:01:31;-3.63;97.93
39401;SHT31;75540;50.000;7.360;2024-01-15T05:03:59;-3.63;98.00
39401;SHT31;75540;50.000;7.360;2024-01-15T05:06:27;-3.56;97.85
39401;SHT31;75540;50.000;7.360;2024-01-15T05:08:56;-3.59;98.01
39401;SHT31;75540;50.000;7.360;2024-01-15T05:11:24;-3.64;98.12
39401;SHT31;75540;50.000;7.360;2024-01-15T05:13:52;-3.57;98.12
39401;SHT31;75540;50.000;7.360;2024-01-15T05:16:22;-3.59;98.11
39401;SHT31;75540;50.000;7.360;2024-01-15T05:18:50;-3.54;98.15
39401;SHT31;75540;50.000;7.360;2024-01-15T05:21:18;-3.56;98.11
39401;SHT31;75540;50.000;7.360;2024-01-15T05:23:46;-3.46;98.08
39401;SHT31;75540;50.000;7.360;2024-01-15T05:26:14;-3.49;98.02
39401;SHT31;75540;50.000;7.360;2024-01-15T05:28:43;-3.44;97.95
39401;SHT31;75540;50.000;7.360;2024-01-15T05:31:11;-3.47;97.99
39401;SHT31;75540;50.000;7.360;2024-01-15T05:33:40;-3.49;98.04
39401;SHT31;75540;50.000;7.360;2024-01-15T05:36:09;-3.39;97.99
39401;SHT31;75540;50.000;7.360;2024-01-15T05:38:37;-3.39;97.86
39401;SHT31;75540;50.000;7.360;2024-01-15T05:41:05;-3.33;97.71
39401;SHT31;75540;50.000;7.360;2024-01-15T05:43:34;-3.42;97.86
39401;SHT31;75540;50.000;7.360;2024-01-15T05:46:02;-3.43;97.89
39401;SHT31;75540;50.000;7.360;2024-01-15T05:48:30;-3.36;97.75
39401;SHT31;75540;50.000;7.360;2024-01-15T05:51:00;-3.37;97.83
39401;SHT31;75540;50.000;7.360;2024-01-15T05:53:28;-3.35;97.76
39401;SHT31;75540;50.000;7.360;2024-01-15T05:55:57;-3.33;97.65
39401;SHT31;75540;50.000;7.360;2024-01-15T05:58:25;-3.42;97.80
39401;SHT31;75540;50.000;7.360;2024-01-15T06:00:53;-3.42;97.90
39401;SHT31;75540;50.000;7.360;2024-01-15T06:03:21;-3.36;97.81
39401;SHT31;75540;50.000;7.360;2024-01-15T06:05:49;-3.30;97.77
39401;SHT31;75540;50.000;7.360;2024-01-15T06:08:19;-3.42;97.79
39401;SHT31;75540;50.000;7.360;2024-01-15T06:10:47;-3.39;97.72
39401;SHT31;75540;50.000;7.360;2024-01-15T06:13:16;-3.35;97.62
39401;SHT31;75540;50.000;7.360;2024-01-15T06:15:44;-3.29;97.52
39401;SHT31;75540;50.000;7.360;2024-01-15T06:18:12;-3.27;97.44
39401;SHT31;75540;50.000;7.360;2024-01-15T06:20:40;-3.27;97.33
39401;SHT31;75540;50.000;7.360;2024-01-15T06:23:09;-3.30;97.41
39401;SHT31;75540;50.000;7.360;2024-01-15T06:25:39;-3.32;97.50
39401;SHT31;75540;50.000;7.360;2024-01-15T06:28:07;-3.27;97.47
39401;SHT31;75540;50.000;7.360;2024-01-15T06:30:36;-3.32;97.58
39401;SHT31;75540;50.000;7.360;2024-01-15T06:33:05;-3.30;97.69
39401;SHT31;75540;50.000;7.360;2024-01-15T06:35:34;-3.26;97.63
39401;SHT31;75540;50.000;7.360;2024-01-15T06:38:02;-3.29;97.73
39401;SHT31;75540;50.000;7.360;2024-01-15T06:40:30;-3.24;97.70
39401;SHT31;75540;50.000;7.360;2024-01-15T06:43:00;-3.30;97.86
39401;SHT31;75540;50.000;7.360;2024-01-15T06:45:28;-3.26;97.76
39401;SHT31;75540;50.000;7.360;2024-01-15T06:47:56;-3.26;97.78
39401;SHT31;75540;50.000;7.360;2024-01-15T06:50:25;-3.24;97.76
39401;SHT31;75540;50.000;7.360;2024-01-15T06:52:53;-3.27;97.74
39401;SHT31;75540;50.000;7.360;2024-01-15T06:55:21;-3.26;97.78
39401;SHT31;75540;50.000;7.360;2024-01-15T06:57:50;-3.27;97.79
39401;SHT31;75540;50.000;7.360;2024-01-15T07:00:19;-3.27;97.81
39401;SHT31;75540;50.000;7.360;2024-01-15T07:02:48;-3.26;97.86
39401;SHT31;75540;50.000;7.360;2024-01-15T07:05:16;-3.20;97.85
39401;SHT31;75540;50.000;7.360;2024-01-15T07:07:45;-3.24;97.81
39401;SHT31;75540;50.000;7.360;2024-01-15T07:10:14;-3.20;97.77
39401;SHT31;75540;50.000;7.360;2024-01-15T07:12:44;-3.17;97.61
39401;SHT31;75540;50.000;7.360;2024-01-15T07:15:13;-3.17;97.57
39401;SHT31;75540;50.000;7.360;2024-01-15T07:17:44;-3.19;97.53
39401;SHT31;75540;50.000;7.360;2024-01-15T07:20:13;-3.13;97.48
39401;SHT31;75540;50.000;7.360;2024-01-15T07:22:42;-3.17;97.44
39401;SHT31;75540;50.000;7.360;2024-01-15T07:25:11;-3.12;97.35
39401;SHT31;75540;50.000;7.360;2024-01-15T07:27:39;-3.15;97.31
39401;SHT31;75540;50.000;7.360;2024-01-15T07:30:12;-3.12;97.29
39401;SHT31;75540;50.000;7.360;2024-01-15T07:32:41;-3.15;97.33
39401;SHT31;75540;50.000;7.360;2024-01-15T07:35:11;-3.09;97.27
39401;SHT31;75540;50.000;7.360;2024-01-15T07:37:39;-3.15;97.35
39401;SHT31;75540;50.000;7.360;2024-01-15T07:40:09;-3.07;97.31
39401;SHT31;75540;50.000;7.360;2024-01-15T07:42:37;-3.05;97.13
39401;SHT31;75540;50.000;7.360;2024-01-15T07:45:06;-2.99;97.06
39401;SHT31;75540;50.000;7.360;2024-01-15T07:47:34;-2.99;97.01
39401;SHT31;75540;50.000;7.360;2024-01-15T07:50:03;-2.99;96.92
39401;SHT31;75540;50.000;7.360;2024-01-15T07:52:33;-3.02;97.02
39401;SHT31;75540;50.000;7.360;2024-01-15T07:55:01;-3.02;97.01
39401;SHT31;75540;50.000;7.360;2024-01-15T07:57:32;-3.07;97.14
39401;SHT31;75540;50.000;7.360;2024-01-15T08:00:00;-2.99;97.12
39401;SHT31;75540;50.000;7.360;2024-01-15T08:02:35;-2.98;97.11
39401;SHT31;75540;50.000;7.360;2024-01-15T08:05:04;-2.96;96.98
39401;SHT31;75540;50.000;7.360;2024-01-15T08:07:34;-2.92;96.92
39401;SHT31;75540;50.000;7.360;2024-01-15T08:10:02;-2.93;96.94
39401;SHT31;75540;50.000;7.360;2024-01-15T08:12:31;-2.91;96.92
39401;SHT31;75540;50.000;7.360;2024-01-15T08:14:59;-2.92;96.92
39401;SHT31;75540;50.000;7.360;2024-01-15T08:17:27;-2.89;96.85
39401;SHT31;75540;50.000;7.360;2024-01-15T08:19:56;-3.00;96.84
39401;SHT31;75540;50.000;7.360;2024-01-15T08:22:24;-2.93;97.03
39401;SHT31;75540;50.000;7.360;2024-01-15T08:24:54;-2.92;97.12
39401;SHT31;75540;50.000;7.360;2024-01-15T08:27:22;-2.91;97.08
39401;SHT31;75540;50.000;7.360;2024-01-15T08:29:50;-2.93;97.10
39401;SHT31;75540;50.000;7.360;2024-01-15T08:32:18;-2.92;97.15
39401;SHT31;75540;50.000;7.360;2024-01-15T08:34:47;-2.92;97.14
39401;SHT31;75540;50.000;7.360;2024-01-15T08:37:18;-2.93;97.11
39401;SHT31;75540;50.000;7.360;2024-01-15T08:39:47;-2.88;97.14
39401;SHT31;75540;50.000;7.360;2024-01-15T08:42:17;-2.81;97.04
39401;SHT31;75540;50.000;7.360;2024-01-15T08:44:45;-2.82;96.91
39401;SHT31;75540;50.000;7.360;2024-01-15T08:47:14;-2.82;96.87
39401;SHT31;75540;50.000;7.360;2024-01-15T08:49:42;-2.72;96.89
39401;SHT31;75540;50.000;7.360;2024-01-15T08:52:12;-2.75;96.80
39401;SHT31;75540;50.000;7.360;2024-01-15T08:54:40;-2.84;96.95
39401;SHT31;75540;50.000;7.360;2024-01-15T08:57:09;-2.78;96.94
39401;SHT31;75540;50.000;7.360;2024-01-15T08:59:39;-2.85;97.10
39401;SHT31;75540;50.000;7.360;2024-01-15T09:02:08;-2.81;97.26
39401;SHT31;75540;50.000;7.360;2024-01-15T09:04:37;-2.82;97.29
39401;SHT31;75540;50.000;7.360;2024-01-15T09:07:05;-2.84;97.22
39401;SHT31;75540;50.000;7.360;2024-01-15T09:09:34;-2.82;97.22
39401;SHT31;75540;50.000;7.360;2024-01-15T09:12:02;-2.75;97.16
39401;SHT31;75540;50.000;7.360;2024-01-15T09:14:31;-2.72;97.13
39401;SHT31;75540;50.000;7.360;2024-01-15T09:17:03;-2.76;97.06
39401;SHT31;75540;50.000;7.360;2024-01-15T09:19:32;-2.72;97.10
39401;SHT31;75540;50.000;7.360;2024-01-15T09:22:00;-2.69;97.04
39401;SHT31;75540;50.000;7.360;2024-01-15T09:24:29;-2.72;97.01
39401;SHT31;75540;50.000;7.360;2024-01-15T09:26:57;-2.64;96.96
39401;SHT31;75540;50.000;7.360;2024-01-15T09:29:25;-2.62;96.89
39401;SHT31;75540;50.000;7.360;2024-01-15T09:31:53;-2.60;96.75
39401;SHT31;75540;50.000;7.360;2024-01-15T09:34:23;-2.58;96.70
39401;SHT31;75540;50.000;7.360;2024-01-15T09:36:52;-2.60;96.62
39401;SHT31;75540;50.000;7.360;2024-01-15T09:39:20;-2.57;96.37
39401;SHT31;75540;50.000;7.360;2024-01-15T09:41:50;-2.55;96.38
39401;SHT31;75540;50.000;7.360;2024-01-15T09:44:19;-2.54;96.42
39401;SHT31;75540;50.000;7.360;2024-01-15T09:46:47;-2.51;96.31
39401;SHT31;75540;50.000;7.360;2024-01-15T09:49:17;-2.51;96.34
39401;SHT31;75540;50.000;7.360;2024-01-15T09:51:47;-2.50;96.16
39401;SHT31;75540;50.000;7.360;2024-01-15T09:54:16;-2.51;96.03
39401;SHT31;75540;50.000;7.360;2024-01-15T09:56:45;-2.48;96.19
39401;SHT31;75540;50.000;7.360;2024-01-15T09:59:16;-2.41;95.90
39401;SHT31;75540;50.000;7.360;2024-01-15T10:01:45;-2.55;95.88
39401;SHT31;75540;50.000;7.360;2024-01-15T10:04:14;-2.43;96.01
39401;SHT31;75540;50.000;7.360;2024-01-15T10:06:44;-2.47;95.92
39401;SHT31;75540;50.000;7.360;2024-01-15T10:09:16;-2.47;95.84
39401;SHT31;75540;50.000;7.360;2024-01-15T10:11:45;-2.50;95.89
39401;SHT31;75540;50.000;7.360;2024-01-15T10:14:13;-2.40;95.87
39401;SHT31;75540;50.000;7.360;2024-01-15T10:16:42;-2.45;95.87
39401;SHT31;75540;50.000;7.360;2024-01-15T10:19:10;-2.41;95.82
39401;SHT31;75540;50.000;7.360;2024-01-15T10:21:39;-2.41;95.75
39401;SHT31;75540;50.000;7.360;2024-01-15T10:24:07;-2.30;95.82
39401;SHT31;75540;50.000;7.360;2024-01-15T10:26:37;-2.34;95.55
39401;SHT31;75540;50.000;7.360;2024-01-15T10:29:05;-2.34;95.53
39401;SHT31;75540;50.000;7.360;2024-01-15T10:31:33;-2.27;95.60
39401;SHT31;75540;50.000;7.360;2024-01-15T10:34:10;-2.29;95.43
39401;SHT31;75540;50.000;7.360;2024-01-15T10:36:40;-2.31;95.32
39401;SHT31;75540;50.000;7.360;2024-01-15T10:39:08;-2.21;95.33
39401;SHT31;75540;50.000;7.360;2024-01-15T10:41:45;-2.27;95.31
39401;SHT31;75540;50.000;7.360;2024-01-15T10:44:13;-2.10;95.31
39401;SHT31;75540;50.000;7.360;2024-01-15T10:46:42;-1.99;95.03
39401;SHT31;75540;50.000;7.360;2024-01-15T10:49:11;-2.00;95.00
39401;SHT31;75540;50.000;7.360;2024-01-15T10:51:40;-1.93;94.93
39401;SHT31;75540;50.000;7.360;2024-01-15T10:54:09;-1.99;94.96
39401;SHT31;75540;50.000;7.360;2024-01-15T10:56:39;-1.91;95.22
39401;SHT31;75540;50.000;7.360;2024-01-15T10:59:10;-2.01;95.08
39401;SHT31;75540;50.000;7.360;2024-01-15T11:01:39;-2.06;95.26
39401;SHT31;75540;50.000;7.360;2024-01-15T11:04:08;-2.17;95.46
39401;SHT31;75540;50.000;7.360;2024-01-15T11:06:43;-2.11;95.61
39401;SHT31;75540;50.000;7.360;2024-01-15T11:09:12;-2.07;95.47
39401;SHT31;75540;50.000;7.360;2024-01-15T11:11:43;-2.10;95.25
39401;SHT31;75540;50.000;7.360;2024-01-15T11:14:33;-2.09;95.26
39401;SHT31;75540;50.000;7.360;2024-01-15T11:17:01;-1.94;95.03
39401;SHT31;75540;50.000;7.360;2024-01-15T11:19:36;-1.76;94.77
39401;SHT31;75540;50.000;7.360;2024-01-15T11:22:08;-1.60;94.46
39401;SHT31;75540;50.000;7.360;2024-01-15T11:24:37;-1.59;94.12
39401;SHT31;75540;50.000;7.360;2024-01-15T11:27:06;-1.76;94.09
39401;SHT31;75540;50.000;7.360;2024-01-15T11:29:37;-1.76;94.28
39401;SHT31;75540;50.000;7.360;2024-01-15T11:32:06;-1.83;94.60
39401;SHT31;75540;50.000;7.360;2024-01-15T11:34:54;-1.79;94.46
39401;SHT31;75540;50.000;7.360;2024-01-15T11:37:25;-1.78;94.40
39401;SHT31;75540;50.000;7.360;2024-01-15T11:39:55;-1.76;94.46
39401;SHT31;75540;50.000;7.360;2024-01-15T11:42:23;-1.76;94.41
39401;SHT31;75540;50.000;7.360;2024-01-15T11:44:53;-1.63;94.29
39401;SHT31;75540;50.000;7.360;2024-01-15T11:50:26;-1.36;93.81
39401;SHT31;75540;50.000;7.360;2024-01-15T11:53:00;-1.44;93.41
39401;SHT31;75540;50.000;7.360;2024-01-15T11:55:30;-1.44;93.45
39401;SHT31;75540;50.000;7.360;2024-01-15T11:58:02;-1.48;93.58
39401;SHT31;75540;50.000;7.360;2024-01-15T12:00:33;-1.51;93.50
39401;SHT31;75540;50.000;7.360;2024-01-15T12:03:02;-1.44;93.43
39401;SHT31;75540;50.000;7.360;2024-01-15T12:05:32;-1.55;93.41
39401;SHT31;75540;50.000;7.360;2024-01-15T12:08:01;-1.44;93.27
39401;SHT31;75540;50.000;7.360;2024-01-15T12:10:29;-1.44;93.12
39401;SHT31;75540;50.000;7.360;2024-01-15T12:12:59;-1.32;93.26
39401;SHT31;75540;50.000;7.360;2024-01-15T12:15:29;-1.34;92.97
39401;SHT31;75540;50.000;7.360;2024-01-15T12:18:00;-1.39;93.28
39401;SHT31;75540;50.000;7.360;2024-01-15T12:20:30;-1.45;93.14
39401;SHT31;75540;50.000;7.360;2024-01-15T12:22:58;-1.39;93.35
39401;SHT31;75540;50.000;7.360;2024-01-15T12:25:26;-1.41;93.29
39401;SHT31;75540;50.000;7.360;2024-01-15T12:27:55;-1.41;93.10
39401;SHT31;75540;50.000;7.360;2024-01-15T12:30:25;-1.34;92.88
39401;SHT31;75540;50.000;7.360;2024-01-15T12:32:54;-1.34;92.77
39401;SHT31;75540;50.000;7.360;2024-01-15T12:35:24;-1.30;92.87
39401;SHT31;75540;50.000;7.360;2024-01-15T12:37:54;-1.08;92.66
39401;SHT31;75540;50.000;7.360;2024-01-15T12:40:23;-0.60;92.33
39401;SHT31;75540;50.000;7.360;2024-01-15T12:42:52;-0.49;91.51
39401;SHT31;75540;50.000;7.360;2024-01-15T12:45:20;-0.67;90.96
39401;SHT31;75540;50.000;7.360;2024-01-15T12:47:48;-0.77;91.33
39401;SHT31;75540;50.000;7.360;2024-01-15T12:50:18;-0.93;91.57
39401;SHT31;75540;50.000;7.360;2024-01-15T12:52:47;-1.08;91.84
39401;SHT31;75540;50.000;7.360;2024-01-15T12:55:16;-1.04;91.86
39401;SHT31;75540;50.000;7.360;2024-01-15T12:57:44;-1.05;91.67
39401;SHT31;75540;50.000;7.360;2024-01-15T13:00:13;-1.18;91.90
39401;SHT31;75540;50.000;7.360;2024-01-15T13:02:42;-1.04;92.23
39401;SHT31;75540;50.000;7.360;2024-01-15T13:05:11;-1.12;91.97
39401;SHT31;75540;50.000;7.360;2024-01-15T13:07:40;-1.18;91.50
39401;SHT31;75540;50.000;7.360;2024-01-15T13:10:09;-1.18;91.83
39401;SHT31;75540;50.000;7.360;2024-01-15T13:12:38;-1.21;91.70
39401;SHT31;75540;50.000;7.360;2024-01-15T13:15:07;-1.15;91.99
39401;SHT31;75540;50.000;7.360;2024-01-15T13:17:38;-1.34;92.23
39401;SHT31;75540;50.000;7.360;2024-01-15T13:20:07;-1.30;92.25
39401;SHT31;75540;50.000;7.360;2024-01-15T13:22:37;-1.28;92.08
39401;SHT31;75540;50.000;7.360;2024-01-15T13:25:08;-1.31;92.05
39401;SHT31;75540;50.000;7.360;2024-01-15T13:27:38;-1.24;92.16
39401;SHT31;75540;50.000;7.360;2024-01-15T13:30:07;-1.18;92.12
39401;SHT31;75540;50.000;7.360;2024-01-15T13:32:36;-1.21;92.12
39401;SHT31;75540;50.000;7.360;2024-01-15T13:35:05;-1.17;92.29
39401;SHT31;75540;50.000;7.360;2024-01-15T13:37:41;-1.17;91.82
39401;SHT31;75540;50.000;7.360;2024-01-15T13:40:11;-1.25;91.91
39401;SHT31;75540;50.000;7.360;2024-01-15T13:42:43;-1.31;91.87
39401;SHT31;75540;50.000;7.360;2024-01-15T13:45:11;-1.32;91.88
39401;SHT31;75540;50.000;7.360;2024-01-15T13:47:41;-1.27;92.12
39401;SHT31;75540;50.000;7.360;2024-01-15T13:50:10;-1.18;91.89
39401;SHT31;75540;50.000;7.360;2024-01-15T13:52:39;-1.18;91.46
39401;SHT31;75540;50.000;7.360;2024-01-15T13:55:08;-1.18;91.62
39401;SHT31;75540;50.000;7.360;2024-01-15T13:57:37;-1.21;91.78
39401;SHT31;75540;50.000;7.360;2024-01-15T14:00:06;-1.27;91.61
39401;SHT31;75540;50.000;7.360;2024-01-15T14:02:38;-1.21;91.63
39401;SHT31;75540;50.000;7.360;2024-01-15T14:05:06;-1.21;91.34
39401;SHT31;75540;50.000;7.360;2024-01-15T14:07:35;-1.22;91.55
39401;SHT31;75540;50.000;7.360;2024-01-15T14:10:03;-1.17;91.44
39401;SHT31;75540;50.000;7.360;2024-01-15T14:12:34;-1.18;91.64
39401;SHT31;75540;50.000;7.360;2024-01-15T14:15:04;-1.21;91.51
39401;SHT31;75540;50.000;7.360;2024-01-15T14:17:33;-1.18;91.21
39401;SHT31;75540;50.000;7.360;2024-01-15T14:20:01;-1.14;90.92
39401;SHT31;75540;50.000;7.360;2024-01-15T14:22:31;-1.15;90.76
39401;SHT31;75540;50.000;7.360;2024-01-15T14:25:00;-1.15;90.69
39401;SHT31;75540;50.000;7.360;2024-01-15T14:27:28;-1.18;90.42
39401;SHT31;75540;50.000;7.360;2024-01-15T14:29:56;-1.18;89.89
39401;SHT31;75540;50.000;7.360;2024-01-15T14:32:26;-1.17;90.01
39401;SHT31;75540;50.000;7.360;2024-01-15T14:34:54;-1.14;89.99
39401;SHT31;75540;50.000;7.360;2024-01-15T14:37:23;-1.15;89.42
39401;SHT31;75540;50.000;7.360;2024-01-15T14:39:51;-1.18;89.26
39401;SHT31;75540;50.000;7.360;2024-01-15T14:42:20;-1.19;89.23
39401;SHT31;75540;50.000;7.360;2024-01-15T14:44:48;-1.30;88.83
39401;SHT31;75540;50.000;7.360;2024-01-15T14:47:16;-1.32;88.60
39401;SHT31;75540;50.000;7.360;2024-01-15T14:49:47;-1.32;88.45
39401;SHT31;75540;50.000;7.360;2024-01-15T14:52:16;-1.34;88.88
39401;SHT31;75540;50.000;7.360;2024-01-15T14:54:44;-1.39;88.58
39401;SHT31;75540;50.000;7.360;2024-01-15T14:57:14;-1.42;88.71
39401;SHT31;75540;50.000;7.360;2024-01-15T14:59:42;-1.41;88.15
39401;SHT31;75540;50.000;7.360;2024-01-15T15:02:10;-1.41;88.40
39401;SHT31;75540;50.000;7.360;2024-01-15T15:04:39;-1.41;88.68
39401;SHT31;75540;50.000;7.360;2024-01-15T15:07:09;-1.42;88.26
39401;SHT31;75540;50.000;7.360;2024-01-15T15:09:38;-1.38;87.81
39401;SHT31;75540;50.000;7.360;2024-01-15T15:12:06;-1.36;88.21
39401;SHT31;75540;50.000;7.360;2024-01-15T15:14:40;-1.35;88.25
39401;SHT31;75540;50.000;7.360;2024-01-15T15:17:09;-1.36;87.83
39401;SHT31;75540;50.000;7.360;2024-01-15T15:19:38;-1.42;87.39
39401;SHT31;75540;50.000;7.360;2024-01-15T15:22:09;-1.36;88.24
39401;SHT31;75540;50.000;7.360;2024-01-15T15:24:38;-1.38;87.50
39401;SHT31;75540;50.000;7.360;2024-01-15T15:27:06;-1.38;87.39
39401;SHT31;75540;50.000;7.360;2024-01-15T15:29:35;-1.36;87.90
39401;SHT31;75540;50.000;7.360;2024-01-15T15:32:06;-1.36;87.75
39401;SHT31;75540;50.000;7.360;2024-01-15T15:34:34;-1.36;87.89
39401;SHT31;75540;50.000;7.360;2024-01-15T15:37:02;-1.31;87.43
39401;SHT31;75540;50.000;7.360;2024-01-15T15:39:32;-1.32;87.41
39401;SHT31;75540;50.000;7.360;2024-01-15T15:42:01;-1.32;87.26
39401;SHT31;75540;50.000;7.360;2024-01-15T15:44:29;-1.32;87.08